createdAt,value
2023-04-04T00:00:34.709Z,102610.41
2023-04-04T00:03:01.736Z,102603.75
2023-04-04T00:05:29.604Z,102609.16
2023-04-04T00:07:56.576Z,102610.00
2023-04-04T00:10:23.576Z,102601.91
2023-04-04T00:12:50.759Z,102595.69
2023-04-04T00:15:18.168Z,102600.53
2023-04-04T00:17:45.229Z,102595.66
2023-04-04T00:20:12.404Z,102601.50
2023-04-04T00:22:39.365Z,102594.25
2023-04-04T00:25:06.649Z,102595.09
2023-04-04T00:27:33.607Z,102596.91
2023-04-04T00:30:00.623Z,102593.66
2023-04-04T00:32:27.781Z,102594.75
2023-04-04T00:34:55.108Z,102605.31
2023-04-04T00:37:22.081Z,102596.84
2023-04-04T00:39:49.906Z,102603.09
2023-04-04T00:42:17.246Z,102603.34
2023-04-04T00:44:44.740Z,102596.81
2023-04-04T00:47:11.912Z,102595.28
2023-04-04T00:49:38.880Z,102606.66
2023-04-04T00:52:07.647Z,102598.19
2023-04-04T00:54:35.893Z,102599.16
2023-04-04T00:57:07.193Z,102596.50
2023-04-04T00:59:34.478Z,102589.00
2023-04-04T01:02:01.817Z,102594.41
2023-04-04T01:04:29.397Z,102585.81
2023-04-04T01:06:56.867Z,102590.50
2023-04-04T01:09:24.907Z,102587.31
2023-04-04T01:11:52.517Z,102593.28
2023-04-04T01:14:19.807Z,102581.59
2023-04-04T01:16:49.712Z,102576.31
2023-04-04T01:19:26.609Z,102577.28
2023-04-04T01:21:55.276Z,102583.94
2023-04-04T01:24:25.030Z,102583.78
2023-04-04T01:26:56.822Z,102579.50
2023-04-04T01:29:23.804Z,102582.38
2023-04-04T01:32:01.023Z,102575.44
2023-04-04T01:34:43.265Z,102575.56
2023-04-04T01:37:56.005Z,102568.06
2023-04-04T01:40:37.476Z,102576.25
2023-04-04T01:43:07.199Z,102568.88
2023-04-04T01:45:36.177Z,102578.56
2023-04-04T01:48:09.163Z,102571.75
2023-04-04T01:50:36.231Z,102577.28
2023-04-04T01:53:03.325Z,102576.47
2023-04-04T01:55:30.396Z,102579.09
2023-04-04T01:57:58.266Z,102565.34
2023-04-04T02:00:25.433Z,102551.59
2023-04-04T02:02:52.498Z,102553.13
2023-04-04T02:05:19.562Z,102556.13
2023-04-04T02:07:50.917Z,102550.75
2023-04-04T02:10:30.468Z,102555.28
2023-04-04T02:12:58.135Z,102546.97
2023-04-04T02:15:26.507Z,102551.13
2023-04-04T02:17:54.219Z,102538.34
2023-04-04T02:20:21.180Z,102548.03
2023-04-04T02:22:55.668Z,102544.44
2023-04-04T02:25:25.378Z,102545.53
2023-04-04T02:27:52.569Z,102550.94
2023-04-04T02:30:20.672Z,102541.63
2023-04-04T02:32:49.057Z,102537.19
2023-04-04T02:35:20.417Z,102536.63
2023-04-04T02:37:47.688Z,102529.00
2023-04-04T02:40:22.366Z,102533.41
2023-04-04T02:42:49.482Z,102530.91
2023-04-04T02:45:17.572Z,102531.88
2023-04-04T02:47:53.468Z,102527.72
2023-04-04T02:50:26.232Z,102528.94
2023-04-04T02:53:02.046Z,102522.84
2023-04-04T02:55:32.290Z,102518.66
2023-04-04T02:58:02.001Z,102527.28
2023-04-04T03:00:29.370Z,102515.31
2023-04-04T03:02:57.710Z,102515.31
2023-04-04T03:05:32.631Z,102514.75
2023-04-04T03:08:00.368Z,102512.69
2023-04-04T03:10:30.040Z,102509.94
2023-04-04T03:12:58.595Z,102519.63
2023-04-04T03:15:27.616Z,102518.91
2023-04-04T03:17:54.675Z,102514.50
2023-04-04T03:20:26.347Z,102508.78
2023-04-04T03:22:53.339Z,102508.78
2023-04-04T03:25:21.174Z,102510.56
2023-04-04T03:27:48.260Z,102504.59
2023-04-04T03:30:21.969Z,102501.28
2023-04-04T03:32:50.829Z,102503.06
2023-04-04T03:35:17.900Z,102502.09
2023-04-04T03:37:45.044Z,102499.84
2023-04-04T03:40:12.927Z,102496.25
2023-04-04T03:42:39.892Z,102492.94
2023-04-04T03:45:10.837Z,102494.84
2023-04-04T03:47:39.163Z,102491.25
2023-04-04T03:50:07.283Z,102486.13
2023-04-04T03:52:40.586Z,102483.50
2023-04-04T03:55:08.183Z,102489.59
2023-04-04T03:57:36.124Z,102495.13
2023-04-04T04:00:06.243Z,102477.91
2023-04-04T04:02:40.546Z,102476.13
2023-04-04T04:05:09.813Z,102468.59
2023-04-04T04:07:36.946Z,102474.44
2023-04-04T04:10:05.394Z,102473.03
2023-04-04T04:12:33.145Z,102469.44
2023-04-04T04:15:00.362Z,102487.03
2023-04-04T04:17:29.264Z,102473.28
2023-04-04T04:19:56.949Z,102486.44
2023-04-04T04:22:24.629Z,102481.44
2023-04-04T04:24:51.896Z,102480.47
2023-04-04T04:27:19.279Z,102485.88
2023-04-04T04:29:46.438Z,102480.03
2023-04-04T04:32:17.612Z,102484.22
2023-04-04T04:34:49.051Z,102472.28
2023-04-04T04:37:19.992Z,102479.19
2023-04-04T04:39:49.493Z,102474.31
2023-04-04T04:42:33.578Z,102488.31
2023-04-04T04:45:02.539Z,102481.38
2023-04-04T04:47:33.429Z,102484.97
2023-04-04T04:50:05.101Z,102491.78
2023-04-04T04:52:38.708Z,102490.09
2023-04-04T04:55:06.700Z,102488.44
2023-04-04T04:57:38.713Z,102489.16
2023-04-04T05:00:14.034Z,102488.31
2023-04-04T05:02:42.736Z,102489.16
2023-04-04T05:05:11.890Z,102494.03
2023-04-04T05:07:39.508Z,102494.72
2023-04-04T05:10:07.702Z,102497.09
2023-04-04T05:12:34.943Z,102495.19
2023-04-04T05:15:02.193Z,102500.06
2023-04-04T05:17:29.280Z,102500.06
2023-04-04T05:20:03.761Z,102491.78
2023-04-04T05:22:30.948Z,102500.50
2023-04-04T05:24:58.220Z,102505.25
2023-04-04T05:27:26.527Z,102513.72
2023-04-04T05:30:03.404Z,102513.47
2023-04-04T05:32:39.621Z,102521.81
2023-04-04T05:35:11.882Z,102514.50
2023-04-04T05:37:40.461Z,102525.47
2023-04-04T05:40:11.370Z,102526.03
2023-04-04T05:42:38.911Z,102508.31
2023-04-04T05:45:07.432Z,102512.34
2023-04-04T05:47:34.662Z,102513.63
2023-04-04T05:50:02.929Z,102516.84
2023-04-04T05:52:32.864Z,102519.91
2023-04-04T05:55:00.254Z,102512.44
2023-04-04T05:57:29.937Z,102506.81
2023-04-04T05:59:59.466Z,102508.09
2023-04-04T06:02:27.339Z,102512.00
2023-04-04T06:04:59.179Z,102520.91
2023-04-04T06:07:33.033Z,102518.84
2023-04-04T06:10:00.747Z,102519.00
2023-04-04T06:12:27.820Z,102523.72
2023-04-04T06:14:54.961Z,102518.88
2023-04-04T06:17:24.737Z,102525.44
2023-04-04T06:19:52.839Z,102530.84
2023-04-04T06:22:19.870Z,102523.50
2023-04-04T06:24:49.921Z,102526.16
2023-04-04T06:27:17.295Z,102519.38
2023-04-04T06:29:44.934Z,102522.63
2023-04-04T06:32:13.916Z,102525.53
2023-04-04T06:34:43.701Z,102519.56
2023-04-04T06:37:12.148Z,102525.56
2023-04-04T06:39:47.673Z,102535.81
2023-04-04T06:42:21.934Z,102516.50
2023-04-04T06:44:50.835Z,102535.94
2023-04-04T06:47:17.790Z,102526.75
2023-04-04T06:49:44.727Z,102532.59
2023-04-04T06:52:11.981Z,102518.38
2023-04-04T06:54:38.989Z,102527.22
2023-04-04T06:57:06.100Z,102530.09
2023-04-04T06:59:33.629Z,102530.13
2023-04-04T07:02:00.965Z,102519.63
2023-04-04T07:04:28.861Z,102513.84
2023-04-04T07:06:55.871Z,102517.19
2023-04-04T07:09:29.148Z,102526.81
2023-04-04T07:11:57.057Z,102513.41
2023-04-04T07:14:25.396Z,102498.06
2023-04-04T07:16:53.917Z,102508.00
2023-04-04T07:19:24.618Z,102504.53
2023-04-04T07:21:51.900Z,102499.25
2023-04-04T07:24:19.060Z,102490.09
2023-04-04T07:26:46.203Z,102488.50
2023-04-04T07:29:13.880Z,102502.16
2023-04-04T07:31:41.134Z,102494.44
2023-04-04T07:34:08.512Z,102494.44
2023-04-04T07:36:35.677Z,102493.59
2023-04-04T07:39:03.119Z,102485.69
2023-04-04T07:41:30.614Z,102477.41
2023-04-04T07:43:57.800Z,102479.06
2023-04-04T07:46:25.303Z,102484.28
2023-04-04T07:48:52.584Z,102482.97
2023-04-04T07:51:28.486Z,102472.59
2023-04-04T07:53:56.677Z,102469.22
2023-04-04T07:56:24.378Z,102471.50
2023-04-04T07:58:51.718Z,102466.22
2023-04-04T08:01:19.251Z,102466.44
2023-04-04T08:03:46.658Z,102470.31
2023-04-04T08:06:13.932Z,102465.81
2023-04-04T08:08:41.936Z,102470.34
2023-04-04T08:11:09.202Z,102455.22
2023-04-04T08:13:36.413Z,102462.94
2023-04-04T08:16:03.660Z,102455.50
2023-04-04T08:18:30.803Z,102450.13
2023-04-04T08:20:58.013Z,102452.97
2023-04-04T08:23:25.495Z,102443.59
2023-04-04T08:25:52.533Z,102435.38
2023-04-04T08:28:19.506Z,102441.56
2023-04-04T08:30:47.171Z,102432.84
2023-04-04T08:33:14.284Z,102444.84
2023-04-04T08:35:41.544Z,102437.19
2023-04-04T08:38:08.860Z,102424.56
2023-04-04T08:40:36.018Z,102428.19
2023-04-04T08:43:05.838Z,102432.31
2023-04-04T08:45:34.340Z,102424.53
2023-04-04T08:48:03.821Z,102427.84
2023-04-04T08:50:31.122Z,102433.28
2023-04-04T08:55:41.617Z,102421.09
2023-04-04T08:58:09.160Z,102420.88
2023-04-04T09:00:36.974Z,102423.34
2023-04-04T09:03:31.570Z,102423.66
2023-04-04T09:05:59.400Z,102409.06
2023-04-04T09:08:26.641Z,102394.56
2023-04-04T09:10:55.365Z,102402.94
2023-04-04T09:13:22.879Z,102394.66
2023-04-04T09:15:54.189Z,102403.00
2023-04-04T09:18:21.167Z,102391.09
2023-04-04T09:20:49.647Z,102393.06
2023-04-04T09:23:23.888Z,102396.84
2023-04-04T09:28:24.340Z,102387.97
2023-04-04T09:30:52.822Z,102390.13
2023-04-04T09:33:23.997Z,102387.16
2023-04-04T09:36:10.766Z,102385.81
2023-04-04T09:38:43.345Z,102395.75
2023-04-04T09:41:14.023Z,102393.81
2023-04-04T09:43:41.176Z,102392.13
2023-04-04T09:46:08.362Z,102401.75
2023-04-04T09:48:37.348Z,102398.72
2023-04-04T09:51:07.238Z,102377.09
2023-04-04T09:53:41.989Z,102392.50
2023-04-04T09:56:09.522Z,102390.16
2023-04-04T09:58:44.079Z,102395.03
2023-04-04T10:01:18.415Z,102386.28
2023-04-04T10:03:54.716Z,102385.66
2023-04-04T10:06:23.145Z,102383.16
2023-04-04T10:08:50.387Z,102369.75
2023-04-04T10:11:36.182Z,102359.81
2023-04-04T10:14:06.676Z,102364.22
2023-04-04T10:16:37.917Z,102367.66
2023-04-04T10:19:08.685Z,102365.66
2023-04-04T10:21:36.560Z,102361.19
2023-04-04T10:24:09.129Z,102362.94
2023-04-04T10:26:37.134Z,102359.81
2023-04-04T10:29:05.654Z,102352.16
2023-04-04T10:31:35.047Z,102358.63
2023-04-04T10:34:19.250Z,102355.09
2023-04-04T10:36:51.250Z,102359.59
2023-04-04T10:39:30.072Z,102351.75
2023-04-04T10:41:58.831Z,102359.25
2023-04-04T10:44:33.997Z,102363.25
2023-04-04T10:47:22.295Z,102364.84
2023-04-04T10:49:51.039Z,102354.44
2023-04-04T10:52:21.094Z,102360.81
2023-04-04T10:54:52.750Z,102353.91
2023-04-04T10:57:20.089Z,102344.72
2023-04-04T11:00:02.201Z,102332.84
2023-04-04T11:02:59.651Z,102335.16
2023-04-04T11:05:46.760Z,102330.31
2023-04-04T11:08:25.112Z,102322.50
2023-04-04T11:10:54.961Z,102315.53
2023-04-04T11:13:32.413Z,102300.38
2023-04-04T11:16:16.198Z,102293.84
2023-04-04T11:18:43.497Z,102303.34
2023-04-04T11:21:27.998Z,102301.09
2023-04-04T11:23:54.880Z,102295.63
2023-04-04T11:26:27.724Z,102291.16
2023-04-04T11:29:00.120Z,102283.41
2023-04-04T11:31:43.287Z,102275.28
2023-04-04T11:34:13.229Z,102273.50
2023-04-04T11:36:41.316Z,102278.25
2023-04-04T11:39:29.189Z,102272.03
2023-04-04T11:42:14.847Z,102269.06
2023-04-04T11:45:03.159Z,102256.81
2023-04-04T11:47:31.607Z,102273.22
2023-04-04T11:50:01.617Z,102262.97
2023-04-04T11:52:35.400Z,102257.59
2023-04-04T11:55:02.472Z,102253.38
2023-04-04T11:57:29.622Z,102256.72
2023-04-04T11:59:57.587Z,102245.59
2023-04-04T12:02:31.729Z,102245.47
2023-04-04T12:04:59.866Z,102239.16
2023-04-04T12:07:29.397Z,102241.25
2023-04-04T12:09:57.705Z,102239.41
2023-04-04T12:12:27.529Z,102246.53
2023-04-04T12:15:06.276Z,102246.47
2023-04-04T12:17:44.102Z,102230.38
2023-04-04T12:20:11.332Z,102228.09
2023-04-04T12:22:38.689Z,102214.63
2023-04-04T12:25:06.372Z,102223.56
2023-04-04T12:27:34.252Z,102224.84
2023-04-04T12:30:04.011Z,102226.59
2023-04-04T12:32:31.424Z,102214.94
2023-04-04T12:35:02.422Z,102231.03
2023-04-04T12:37:30.354Z,102220.19
2023-04-04T12:39:57.995Z,102212.81
2023-04-04T12:42:26.206Z,102206.53
2023-04-04T12:44:54.270Z,102208.16
2023-04-04T12:47:24.033Z,102200.50
2023-04-04T12:49:57.141Z,102201.34
2023-04-04T12:52:31.975Z,102195.63
2023-04-04T12:55:10.204Z,102198.09
2023-04-04T12:57:39.912Z,102184.19
2023-04-04T13:00:09.452Z,102184.19
2023-04-04T13:02:44.088Z,102185.81
2023-04-04T13:05:11.276Z,102179.19
2023-04-04T13:07:43.367Z,102178.59
2023-04-04T13:10:15.855Z,102181.88
2023-04-04T13:13:00.729Z,102176.06
2023-04-04T13:15:51.003Z,102174.53
2023-04-04T13:18:25.180Z,102161.56
2023-04-04T13:20:55.641Z,102158.13
2023-04-04T13:23:23.345Z,102166.00
2023-04-04T13:25:51.244Z,102159.44
2023-04-04T13:28:18.160Z,102159.59
2023-04-04T13:30:48.972Z,102151.47
2023-04-04T13:33:20.469Z,102153.44
2023-04-04T13:35:47.435Z,102147.28
2023-04-04T13:38:14.438Z,102147.00
2023-04-04T13:40:41.531Z,102146.25
2023-04-04T13:43:11.539Z,102137.25
2023-04-04T13:45:39.027Z,102132.63
2023-04-04T13:48:06.282Z,102130.09
2023-04-04T13:50:38.079Z,102142.16
2023-04-04T13:53:05.222Z,102130.72
2023-04-04T13:55:32.363Z,102128.91
2023-04-04T13:57:59.472Z,102128.97
2023-04-04T14:00:26.668Z,102124.00
2023-04-04T14:02:55.739Z,102117.53
2023-04-04T14:05:24.615Z,102100.75
2023-04-04T14:07:51.535Z,102109.91
2023-04-04T14:10:18.720Z,102097.38
2023-04-04T14:12:46.101Z,102100.63
2023-04-04T14:15:13.636Z,102086.59
2023-04-04T14:17:40.843Z,102098.31
2023-04-04T14:20:08.344Z,102091.31
2023-04-04T14:22:36.134Z,102097.59
2023-04-04T14:25:04.994Z,102091.88
2023-04-04T14:27:32.067Z,102101.09
2023-04-04T14:29:59.156Z,102098.88
2023-04-04T14:32:27.367Z,102089.03
2023-04-04T14:34:54.474Z,102087.84
2023-04-04T14:37:21.845Z,102081.38
2023-04-04T14:39:49.111Z,102083.59
2023-04-04T14:42:16.239Z,102083.38
2023-04-04T14:44:43.252Z,102080.72
2023-04-04T14:47:10.140Z,102075.25
2023-04-04T14:49:37.031Z,102082.00
2023-04-04T14:52:04.460Z,102071.38
2023-04-04T14:54:31.529Z,102071.69
2023-04-04T14:56:58.764Z,102076.88
2023-04-04T14:59:25.693Z,102075.81
2023-04-04T15:01:52.872Z,102069.25
2023-04-04T15:04:20.029Z,102074.69
2023-04-04T15:06:47.166Z,102067.03
2023-04-04T15:09:16.342Z,102063.22
2023-04-04T15:11:43.281Z,102064.63
2023-04-04T15:14:10.798Z,102071.72
2023-04-04T15:16:38.348Z,102070.34
2023-04-04T15:19:05.533Z,102057.03
2023-04-04T15:21:32.640Z,102059.50
2023-04-04T15:23:59.497Z,102049.97
2023-04-04T15:26:26.578Z,102058.63
2023-04-04T15:28:53.470Z,102051.22
2023-04-04T15:31:20.964Z,102045.78
2023-04-04T15:33:48.327Z,102049.38
2023-04-04T15:36:15.836Z,102046.97
2023-04-04T15:38:43.123Z,102059.47
2023-04-04T15:41:10.383Z,102047.13
2023-04-04T15:43:37.509Z,102060.84
2023-04-04T15:46:04.839Z,102047.28
2023-04-04T15:48:32.228Z,102043.88
2023-04-04T15:51:02.605Z,102050.53
2023-04-04T15:53:31.100Z,102046.56
2023-04-04T15:55:58.982Z,102054.75
2023-04-04T15:58:26.697Z,102046.09
2023-04-04T16:00:54.187Z,102045.00
2023-04-04T16:03:21.405Z,102048.81
2023-04-04T16:05:48.505Z,102050.75
2023-04-04T16:08:15.582Z,102046.16
2023-04-04T16:10:44.303Z,102037.75
2023-04-04T16:13:12.728Z,102041.50
2023-04-04T16:15:40.018Z,102035.94
2023-04-04T16:18:07.149Z,102044.88
2023-04-04T16:20:34.705Z,102044.88
2023-04-04T16:23:01.873Z,102032.97
2023-04-04T16:25:28.928Z,102032.09
2023-04-04T16:27:55.939Z,102032.72
2023-04-04T16:30:23.057Z,102025.94
2023-04-04T16:32:50.895Z,102044.22
2023-04-04T16:35:18.099Z,102036.91
2023-04-04T16:37:45.196Z,102031.25
2023-04-04T16:40:14.021Z,102023.63
2023-04-04T16:42:42.193Z,102026.41
2023-04-04T16:45:10.420Z,102037.25
2023-04-04T16:47:37.804Z,102025.97
2023-04-04T16:50:07.013Z,102026.41
2023-04-04T16:52:34.070Z,102027.25
2023-04-04T16:55:01.056Z,102029.00
2023-04-04T16:57:28.023Z,102027.81
2023-04-04T16:59:55.053Z,102033.16
2023-04-04T17:02:22.256Z,102033.78
2023-04-04T17:04:49.520Z,102032.75
2023-04-04T17:07:16.842Z,102017.88
2023-04-04T17:09:44.786Z,102024.56
2023-04-04T17:12:12.852Z,102030.91
2023-04-04T17:14:40.224Z,102024.22
2023-04-04T17:17:07.952Z,102033.75
2023-04-04T17:19:35.721Z,102027.00
2023-04-04T17:22:03.251Z,102025.56
2023-04-04T17:24:30.410Z,102025.63
2023-04-04T17:27:00.476Z,102024.84
2023-04-04T17:29:27.513Z,102026.34
2023-04-04T17:31:56.094Z,102030.06
2023-04-04T17:34:23.780Z,102027.63
2023-04-04T17:36:52.459Z,102029.22
2023-04-04T17:39:19.825Z,102022.03
2023-04-04T17:41:49.960Z,102022.03
2023-04-04T17:44:19.190Z,102028.97
2023-04-04T17:46:46.902Z,102022.56
2023-04-04T17:49:19.714Z,102024.81
2023-04-04T17:51:48.863Z,102035.69
2023-04-04T17:54:16.683Z,102020.00
2023-04-04T17:56:46.001Z,102033.56
2023-04-04T17:59:14.618Z,102027.38
2023-04-04T18:01:41.566Z,102023.44
2023-04-04T18:04:08.949Z,102030.41
2023-04-04T18:06:39.054Z,102027.69
2023-04-04T18:09:07.525Z,102023.53
2023-04-04T18:11:36.821Z,102023.09
2023-04-04T18:14:04.418Z,102029.03
2023-04-04T18:16:39.082Z,102029.19
2023-04-04T18:19:07.127Z,102030.78
2023-04-04T18:21:34.205Z,102027.06
2023-04-04T18:24:01.405Z,102023.31
2023-04-04T18:26:28.720Z,102033.13
2023-04-04T18:28:55.863Z,102025.06
2023-04-04T18:31:22.788Z,102035.94
2023-04-04T18:33:49.817Z,102035.50
2023-04-04T18:36:17.042Z,102040.56
2023-04-04T18:38:45.390Z,102038.28
2023-04-04T18:41:12.460Z,102048.72
2023-04-04T18:43:39.455Z,102043.53
2023-04-04T18:46:07.690Z,102042.25
2023-04-04T18:48:34.782Z,102040.38
2023-04-04T18:51:02.010Z,102046.28
2023-04-04T18:53:29.506Z,102048.69
2023-04-04T18:55:59.630Z,102058.09
2023-04-04T18:58:27.115Z,102057.22
2023-04-04T19:00:55.930Z,102044.66
2023-04-04T19:03:23.305Z,102052.00
2023-04-04T19:05:51.141Z,102059.56
2023-04-04T19:08:19.151Z,102045.31
2023-04-04T19:10:50.645Z,102048.53
2023-04-04T19:13:18.346Z,102043.91
2023-04-04T19:15:45.585Z,102051.06
2023-04-04T19:18:12.509Z,102047.69
2023-04-04T19:20:42.035Z,102045.78
2023-04-04T19:23:09.253Z,102044.69
2023-04-04T19:25:36.848Z,102041.13
2023-04-04T19:28:04.398Z,102039.22
2023-04-04T19:30:47.233Z,102047.31
2023-04-04T19:33:17.597Z,102044.13
2023-04-04T19:35:54.759Z,102040.38
2023-04-04T19:38:28.688Z,102039.78
2023-04-04T19:41:26.721Z,102041.53
2023-04-04T19:43:53.791Z,102040.63
2023-04-04T19:46:30.544Z,102044.03
2023-04-04T19:49:10.314Z,102048.44
2023-04-04T19:51:49.136Z,102046.66
2023-04-04T19:54:16.716Z,102045.72
2023-04-04T19:56:46.605Z,102041.69
2023-04-04T20:00:05.137Z,102047.72
2023-04-04T20:02:35.187Z,102046.69
2023-04-04T20:05:02.735Z,102049.78
2023-04-04T20:07:29.768Z,102047.81
2023-04-04T20:09:56.985Z,102041.75
2023-04-04T20:12:25.537Z,102052.56
2023-04-04T20:14:59.577Z,102042.66
2023-04-04T20:17:26.706Z,102041.88
2023-04-04T20:19:53.861Z,102046.91
2023-04-04T20:22:23.160Z,102046.59
2023-04-04T20:24:50.392Z,102046.31
2023-04-04T20:27:24.040Z,102046.84
2023-04-04T20:29:53.924Z,102034.97
2023-04-04T20:32:20.977Z,102040.63
2023-04-04T20:34:50.161Z,102056.94
2023-04-04T20:37:26.471Z,102052.13
2023-04-04T20:39:55.941Z,102050.34
2023-04-04T20:42:41.859Z,102056.19
2023-04-04T20:45:08.835Z,102050.06
2023-04-04T20:47:51.877Z,102052.41
2023-04-04T20:50:22.209Z,102051.63
2023-04-04T20:52:51.356Z,102048.00
2023-04-04T20:55:20.304Z,102052.00
2023-04-04T20:57:48.212Z,102046.56
2023-04-04T21:00:31.177Z,102042.78
2023-04-04T21:03:00.535Z,102043.63
2023-04-04T21:05:33.466Z,102043.97
2023-04-04T21:08:02.288Z,102048.16
2023-04-04T21:10:29.144Z,102052.97
2023-04-04T21:13:00.882Z,102051.66
2023-04-04T21:15:30.631Z,102052.16
2023-04-04T21:18:06.935Z,102049.34
2023-04-04T21:20:53.797Z,102047.53
2023-04-04T21:23:26.626Z,102050.19
2023-04-04T21:25:58.204Z,102046.72
2023-04-04T21:28:35.391Z,102050.69
2023-04-04T21:31:14.536Z,102051.50
2023-04-04T21:33:47.026Z,102057.97
2023-04-04T21:36:28.755Z,102059.47
2023-04-04T21:39:02.205Z,102058.97
2023-04-04T21:41:34.434Z,102055.34
2023-04-04T21:44:05.059Z,102051.19
2023-04-04T21:46:40.611Z,102046.22
2023-04-04T21:49:08.797Z,102052.53
2023-04-04T21:51:36.339Z,102047.06
2023-04-04T21:54:04.212Z,102057.00
2023-04-04T21:56:33.971Z,102056.97
2023-04-04T21:59:03.748Z,102053.00
2023-04-04T22:01:31.121Z,102043.88
2023-04-04T22:03:58.940Z,102044.34
2023-04-04T22:06:27.181Z,102044.84
2023-04-04T22:08:57.219Z,102039.22
2023-04-04T22:11:27.039Z,102046.66
2023-04-04T22:14:03.495Z,102054.25
2023-04-04T22:16:32.059Z,102036.22
2023-04-04T22:19:01.587Z,102040.00
2023-04-04T22:21:29.041Z,102029.25
2023-04-04T22:24:02.596Z,102047.28
2023-04-04T22:26:32.449Z,102038.97
2023-04-04T22:29:04.278Z,102038.47
2023-04-04T22:31:34.598Z,102043.25
2023-04-04T22:34:03.161Z,102032.34
2023-04-04T22:36:30.836Z,102035.97
2023-04-04T22:38:58.303Z,102028.50
2023-04-04T22:41:28.109Z,102030.66
2023-04-04T22:43:56.875Z,102032.13
2023-04-04T22:46:25.965Z,102029.13
2023-04-04T22:49:05.350Z,102023.31
2023-04-04T22:51:44.543Z,102024.31
2023-04-04T22:54:16.229Z,102018.34
2023-04-04T22:56:43.644Z,102012.53
2023-04-04T22:59:10.709Z,102008.53
2023-04-04T23:01:38.119Z,102014.66
2023-04-04T23:04:05.554Z,102011.66
2023-04-04T23:06:32.569Z,102022.56
2023-04-04T23:08:59.479Z,102014.94
2023-04-04T23:11:27.237Z,102011.94
2023-04-04T23:13:57.207Z,102014.91
2023-04-04T23:16:26.411Z,102005.63
2023-04-04T23:18:53.638Z,102019.00
2023-04-04T23:21:22.088Z,102000.31
2023-04-04T23:23:49.425Z,102009.91
2023-04-04T23:26:16.555Z,101992.03
2023-04-04T23:28:43.568Z,102015.50
2023-04-04T23:31:10.623Z,102009.69
2023-04-04T23:33:37.899Z,101994.47
2023-04-04T23:36:05.464Z,102006.84
2023-04-04T23:38:32.633Z,101990.63
2023-04-04T23:40:59.710Z,101991.63
2023-04-04T23:43:26.684Z,101997.06
2023-04-04T23:45:53.998Z,101995.56
2023-04-04T23:48:21.317Z,101977.69
2023-04-04T23:50:49.998Z,101987.13
2023-04-04T23:53:16.995Z,101981.31
2023-04-04T23:55:43.988Z,101989.25
2023-04-04T23:58:11.117Z,101982.31
